Time;durP1;ratioP1;P1;durP2;ratioP2;P2;SDS_P1;SDS_P2;PMS_P1;PMS_P2;Temp;Humidity;BMP_temperature;BMP_pressure;BME280_temperature;BME280_humidity;BME280_pressure;Samples;Min_cycle;Max_cycle;Signal;HPM_P1;HPM_P2
2021/11/15 00:00:59;;;;;;;3.72;2.83;;;;;;;;;;5051692;28;20345;-36
2021/11/15 00:03:26;;;;;;;6.20;3.20;;;;;;;;;;5051658;28;20601;-36
2021/11/15 00:05:53;;;;;;;6.78;2.92;;;;;;;;;;5051757;28;20044;-36
2021/11/15 00:08:18;;;;;;;4.60;2.70;;;;;;;;;;5051520;28;20028;-36
2021/11/15 00:10:43;;;;;;;3.67;2.50;;;;;;;;;;5051453;28;20048;-37
2021/11/15 00:13:09;;;;;;;5.43;3.25;;;;;;;;;;5051189;28;20043;-36
2021/11/15 00:15:35;;;;;;;4.18;2.33;;;;;;;;;;5051352;28;20106;-36
2021/11/15 00:18:00;;;;;;;5.43;2.28;;;;;;;;;;5050237;28;20037;-36
2021/11/15 00:20:26;;;;;;;4.55;2.78;;;;;;;;;;5051640;28;20105;-36
2021/11/15 00:22:52;;;;;;;5.70;3.50;;;;;;;;;;5050018;28;20123;-37
2021/11/15 00:25:18;;;;;;;4.40;2.60;;;;;;;;;;5051271;28;20032;-37
2021/11/15 00:27:43;;;;;;;3.67;1.95;;;;;;;;;;5051203;28;20133;-36
2021/11/15 00:30:10;;;;;;;4.45;2.72;;;;;;;;;;5051250;28;20078;-36
2021/11/15 00:32:36;;;;;;;7.47;3.47;;;;;;;;;;5051194;28;20047;-36
2021/11/15 00:35:01;;;;;;;3.50;2.10;;;;;;;;;;5051369;28;20507;-36
2021/11/15 00:37:26;;;;;;;2.25;1.77;;;;;;;;;;5050975;28;20102;-37
2021/11/15 00:39:52;;;;;;;5.88;3.45;;;;;;;;;;5051056;28;20025;-36
2021/11/15 00:42:18;;;;;;;5.53;2.88;;;;;;;;;;5049917;28;20120;-36
2021/11/15 00:44:44;;;;;;;3.70;2.58;;;;;;;;;;5051191;28;20025;-36
2021/11/15 00:47:09;;;;;;;4.22;2.40;;;;;;;;;;5051127;28;20044;-37
2021/11/15 00:49:35;;;;;;;5.03;2.83;;;;;;;;;;5051309;28;20013;-36
2021/11/15 00:52:00;;;;;;;4.07;2.95;;;;;;;;;;5051255;28;20057;-37
2021/11/15 00:54:26;;;;;;;5.72;3.38;;;;;;;;;;5051032;28;20483;-37
2021/11/15 00:56:51;;;;;;;4.72;2.88;;;;;;;;;;5050973;28;20063;-37
2021/11/15 00:59:16;;;;;;;4.40;2.72;;;;;;;;;;5050851;28;20028;-36
2021/11/15 01:01:41;;;;;;;2.97;2.10;;;;;;;;;;5051484;28;20032;-36
2021/11/15 01:04:07;;;;;;;3.97;2.28;;;;;;;;;;5050945;28;20466;-36
2021/11/15 01:06:33;;;;;;;4.38;3.08;;;;;;;;;;5051094;28;20459;-36
2021/11/15 01:08:58;;;;;;;5.10;2.50;;;;;;;;;;5050849;28;20047;-36
2021/11/15 01:11:24;;;;;;;5.13;2.58;;;;;;;;;;5051085;28;20037;-36
2021/11/15 01:13:49;;;;;;;3.75;2.75;;;;;;;;;;5050867;28;20079;-36
2021/11/15 01:16:14;;;;;;;5.95;3.25;;;;;;;;;;5051116;28;20104;-36
2021/11/15 01:18:43;;;;;;;3.35;2.03;;;;;;;;;;5051002;28;20024;-37
2021/11/15 01:21:09;;;;;;;6.53;2.22;;;;;;;;;;5050836;28;20044;-36
2021/11/15 01:23:36;;;;;;;4.45;2.50;;;;;;;;;;5050772;28;20013;-37
2021/11/15 01:26:01;;;;;;;6.18;2.28;;;;;;;;;;5035696;28;20499;-36
2021/11/15 01:28:26;;;;;;;3.60;2.13;;;;;;;;;;5054426;28;20070;-36
2021/11/15 01:30:52;;;;;;;4.80;2.60;;;;;;;;;;5054409;28;20040;-37
2021/11/15 01:33:17;;;;;;;4.90;2.35;;;;;;;;;;5053290;28;20024;-36
2021/11/15 01:35:43;;;;;;;3.28;2.15;;;;;;;;;;5054247;28;20033;-36
2021/11/15 01:38:08;;;;;;;3.60;1.35;;;;;;;;;;5054328;28;20049;-37
2021/11/15 01:40:34;;;;;;;4.90;2.63;;;;;;;;;;5036457;28;20032;-36
2021/11/15 01:43:00;;;;;;;2.83;1.08;;;;;;;;;;5054195;28;20039;-36
2021/11/15 01:45:26;;;;;;;2.72;1.95;;;;;;;;;;5054205;28;20057;-37
2021/11/15 01:47:53;;;;;;;4.60;2.85;;;;;;;;;;5054151;28;20463;-36
2021/11/15 01:50:19;;;;;;;5.43;2.30;;;;;;;;;;5054112;28;20068;-36
2021/11/15 01:52:44;;;;;;;4.47;2.40;;;;;;;;;;5054032;28;20049;-36
2021/11/15 01:55:10;;;;;;;3.58;2.60;;;;;;;;;;5054043;28;20059;-37
2021/11/15 01:57:35;;;;;;;8.57;2.92;;;;;;;;;;5054067;28;20017;-36
2021/11/15 02:00:03;;;;;;;4.45;2.42;;;;;;;;;;5054317;28;20029;-36
2021/11/15 02:02:37;;;;;;;4.82;2.70;;;;;;;;;;5053875;28;20029;-36
2021/11/15 02:05:03;;;;;;;4.18;2.67;;;;;;;;;;5053823;28;20521;-36
2021/11/15 02:07:28;;;;;;;4.85;3.17;;;;;;;;;;5053855;28;20078;-36
2021/11/15 02:09:53;;;;;;;5.95;2.72;;;;;;;;;;5053598;28;20467;-36
2021/11/15 02:12:19;;;;;;;5.47;2.92;;;;;;;;;;5053983;28;20025;-36
2021/11/15 02:14:44;;;;;;;4.07;2.65;;;;;;;;;;5053678;28;20017;-37
2021/11/15 02:17:10;;;;;;;3.65;2.42;;;;;;;;;;5053902;28;20019;-36
2021/11/15 02:19:35;;;;;;;3.20;2.40;;;;;;;;;;5053494;28;20112;-36
2021/11/15 02:22:01;;;;;;;7.68;2.75;;;;;;;;;;5035747;28;20021;-36
2021/11/15 02:24:26;;;;;;;7.63;4.18;;;;;;;;;;5053376;28;20487;-36
2021/11/15 02:26:52;;;;;;;3.70;2.42;;;;;;;;;;5053605;28;20540;-36
2021/11/15 02:29:18;;;;;;;4.28;2.72;;;;;;;;;;5053660;28;20029;-37
2021/11/15 02:31:43;;;;;;;5.35;2.80;;;;;;;;;;5053163;28;20028;-36
2021/11/15 02:34:10;;;;;;;4.70;3.03;;;;;;;;;;5053394;28;20029;-36
2021/11/15 02:36:38;;;;;;;5.15;2.88;;;;;;;;;;5053079;28;20032;-36
2021/11/15 02:39:04;;;;;;;4.57;2.70;;;;;;;;;;5053489;28;20391;-36
2021/11/15 02:41:29;;;;;;;4.03;2.03;;;;;;;;;;5053201;28;20037;-36
2021/11/15 02:43:54;;;;;;;3.25;2.40;;;;;;;;;;5052899;28;20033;-37
2021/11/15 02:46:20;;;;;;;5.90;3.40;;;;;;;;;;5052980;28;20040;-36
2021/11/15 02:48:46;;;;;;;9.65;3.90;;;;;;;;;;5052942;28;20032;-37
2021/11/15 02:51:11;;;;;;;10.43;3.17;;;;;;;;;;5053045;28;20017;-36
2021/11/15 02:53:36;;;;;;;6.53;3.47;;;;;;;;;;5053189;28;20078;-36
2021/11/15 02:56:04;;;;;;;4.95;3.15;;;;;;;;;;5053133;28;20021;-37
2021/11/15 02:58:29;;;;;;;9.48;4.25;;;;;;;;;;5052817;28;20040;-36
2021/11/15 03:00:56;;;;;;;4.88;2.75;;;;;;;;;;5052766;28;20017;-36
2021/11/15 03:03:22;;;;;;;7.95;3.58;;;;;;;;;;5052806;28;20036;-36
2021/11/15 03:05:49;;;;;;;7.55;4.40;;;;;;;;;;5035020;28;20067;-36
2021/11/15 03:08:15;;;;;;;5.35;3.95;;;;;;;;;;5052635;28;20037;-37
2021/11/15 03:10:42;;;;;;;8.05;3.10;;;;;;;;;;5052626;28;20382;-36
2021/11/15 03:13:08;;;;;;;6.55;3.80;;;;;;;;;;5052586;28;20036;-37
2021/11/15 03:15:36;;;;;;;6.18;3.08;;;;;;;;;;5052538;28;20044;-36
2021/11/15 03:18:06;;;;;;;7.40;4.32;;;;;;;;;;5052742;28;20166;-36
2021/11/15 03:20:36;;;;;;;8.55;4.05;;;;;;;;;;5052320;28;20049;-36
2021/11/15 03:23:09;;;;;;;12.27;3.88;;;;;;;;;;5052384;28;20442;-37
2021/11/15 03:25:34;;;;;;;4.95;3.10;;;;;;;;;;5034385;28;20033;-36
2021/11/15 03:27:59;;;;;;;5.95;2.72;;;;;;;;;;5052252;28;20036;-36
2021/11/15 03:30:26;;;;;;;3.50;1.60;;;;;;;;;;5052447;28;20471;-36
2021/11/15 03:32:51;;;;;;;8.45;3.72;;;;;;;;;;5052396;28;20035;-37
2021/11/15 03:35:17;;;;;;;7.32;3.90;;;;;;;;;;5052113;28;20035;-36
2021/11/15 03:37:43;;;;;;;9.65;3.95;;;;;;;;;;5051777;28;20514;-36
2021/11/15 03:40:14;;;;;;;6.20;3.75;;;;;;;;;;5052140;28;20036;-36
2021/11/15 03:42:41;;;;;;;8.15;4.90;;;;;;;;;;5051865;28;20028;-36
2021/11/15 03:45:07;;;;;;;7.45;3.67;;;;;;;;;;5034190;28;20017;-36
2021/11/15 03:47:32;;;;;;;6.18;2.97;;;;;;;;;;5051307;28;20052;-36
2021/11/15 03:49:58;;;;;;;6.72;3.85;;;;;;;;;;5051717;28;20020;-36
2021/11/15 03:52:23;;;;;;;5.80;3.35;;;;;;;;;;5051913;28;20029;-36
2021/11/15 03:54:49;;;;;;;6.43;3.67;;;;;;;;;;5051759;28;20460;-36
2021/11/15 03:57:14;;;;;;;7.93;3.97;;;;;;;;;;5051736;28;20096;-36
2021/11/15 03:59:40;;;;;;;7.15;3.97;;;;;;;;;;5051661;28;20021;-36
2021/11/15 04:02:06;;;;;;;7.60;4.18;;;;;;;;;;5051873;28;20379;-36
2021/11/15 04:04:48;;;;;;;7.57;3.72;;;;;;;;;;5051655;28;20032;-36
2021/11/15 04:07:14;;;;;;;6.93;3.38;;;;;;;;;;5051810;28;20071;-37
2021/11/15 04:09:39;;;;;;;6.40;2.83;;;;;;;;;;5051711;28;20588;-37
2021/11/15 04:12:05;;;;;;;6.90;3.33;;;;;;;;;;5051560;28;20433;-36
2021/11/15 04:14:31;;;;;;;6.97;3.58;;;;;;;;;;5051536;28;20025;-36
2021/11/15 04:16:58;;;;;;;6.40;3.20;;;;;;;;;;5051362;28;20033;-36
2021/11/15 04:19:23;;;;;;;9.38;4.03;;;;;;;;;;5051401;28;20116;-36
2021/11/15 04:21:51;;;;;;;5.55;3.33;;;;;;;;;;5050064;28;20131;-36
2021/11/15 04:24:16;;;;;;;3.75;2.45;;;;;;;;;;5051319;28;20029;-36
2021/11/15 04:26:42;;;;;;;6.95;3.63;;;;;;;;;;5051174;28;20120;-36
2021/11/15 04:29:07;;;;;;;4.75;3.67;;;;;;;;;;5051319;28;20053;-36
2021/11/15 04:31:32;;;;;;;7.30;3.35;;;;;;;;;;5051164;28;20108;-36
2021/11/15 04:33:58;;;;;;;6.20;3.50;;;;;;;;;;5033466;28;20120;-36
2021/11/15 04:36:23;;;;;;;8.25;3.45;;;;;;;;;;5051157;28;20029;-37
2021/11/15 04:38:50;;;;;;;3.90;2.25;;;;;;;;;;5051029;28;20089;-36
2021/11/15 04:41:15;;;;;;;5.28;3.35;;;;;;;;;;5051305;28;20033;-36
2021/11/15 04:43:41;;;;;;;7.95;4.57;;;;;;;;;;5050978;28;20479;-36
2021/11/15 04:46:06;;;;;;;6.20;3.55;;;;;;;;;;5051053;28;20040;-37
2021/11/15 04:48:31;;;;;;;4.97;3.00;;;;;;;;;;5051464;28;20412;-36
2021/11/15 04:50:57;;;;;;;6.65;3.92;;;;;;;;;;5051055;28;20033;-36
2021/11/15 04:53:23;;;;;;;7.78;3.78;;;;;;;;;;5051088;28;20021;-37
2021/11/15 04:55:48;;;;;;;9.43;4.95;;;;;;;;;;5033520;28;20033;-37
2021/11/15 04:58:14;;;;;;;7.25;3.45;;;;;;;;;;5033252;28;20031;-37
2021/11/15 05:00:39;;;;;;;4.30;2.58;;;;;;;;;;5053457;28;20108;-36
2021/11/15 05:03:05;;;;;;;5.90;2.75;;;;;;;;;;5055234;28;20067;-37
2021/11/15 05:05:30;;;;;;;5.35;2.95;;;;;;;;;;5055025;28;20056;-36
2021/11/15 05:07:57;;;;;;;7.95;4.38;;;;;;;;;;5055152;28;20074;-37
2021/11/15 05:10:23;;;;;;;3.85;2.17;;;;;;;;;;5054808;28;20515;-36
2021/11/15 05:12:48;;;;;;;6.60;3.30;;;;;;;;;;5055101;28;20025;-36
2021/11/15 05:15:14;;;;;;;6.03;3.80;;;;;;;;;;5054780;28;20056;-36
2021/11/15 05:17:40;;;;;;;8.15;3.55;;;;;;;;;;5055012;28;20017;-36
2021/11/15 05:20:07;;;;;;;6.32;3.38;;;;;;;;;;5054814;28;20673;-36
2021/11/15 05:22:32;;;;;;;7.28;3.45;;;;;;;;;;5054610;28;20555;-36
2021/11/15 05:24:57;;;;;;;7.78;3.55;;;;;;;;;;5054586;28;20029;-37
2021/11/15 05:27:23;;;;;;;6.07;3.60;;;;;;;;;;5054795;28;20116;-36
2021/11/15 05:29:48;;;;;;;4.03;2.40;;;;;;;;;;5054621;28;20498;-38
2021/11/15 05:32:13;;;;;;;2.60;2.35;;;;;;;;;;5054776;28;20543;-36
2021/11/15 05:34:39;;;;;;;7.85;3.55;;;;;;;;;;5054431;28;20104;-37
2021/11/15 05:37:04;;;;;;;5.97;3.40;;;;;;;;;;5054205;28;20135;-36
2021/11/15 05:39:30;;;;;;;5.38;3.10;;;;;;;;;;5054695;28;20037;-37
2021/11/15 05:41:57;;;;;;;6.15;2.85;;;;;;;;;;5054180;28;20040;-37
2021/11/15 05:44:23;;;;;;;15.10;3.67;;;;;;;;;;5054343;28;20083;-37
2021/11/15 05:46:49;;;;;;;5.53;2.30;;;;;;;;;;5054347;28;20032;-36
2021/11/15 05:49:14;;;;;;;4.63;3.28;;;;;;;;;;5054404;28;20497;-36
2021/11/15 05:51:39;;;;;;;3.03;1.92;;;;;;;;;;5054212;28;20025;-36
2021/11/15 05:54:05;;;;;;;5.13;3.15;;;;;;;;;;5054228;28;20107;-36
2021/11/15 05:56:30;;;;;;;5.68;3.45;;;;;;;;;;5036260;28;20537;-37
2021/11/15 05:58:55;;;;;;;4.78;2.60;;;;;;;;;;5053857;28;20032;-36
2021/11/15 06:01:21;;;;;;;4.20;3.28;;;;;;;;;;5054246;28;20078;-37
2021/11/15 06:03:46;;;;;;;4.93;3.60;;;;;;;;;;5053820;28;20037;-36
2021/11/15 06:06:11;;;;;;;6.38;4.03;;;;;;;;;;5054011;28;20025;-36
2021/11/15 06:08:37;;;;;;;7.75;3.63;;;;;;;;;;5054013;28;20036;-37
2021/11/15 06:11:03;;;;;;;7.60;3.35;;;;;;;;;;5053183;28;20032;-36
2021/11/15 06:13:29;;;;;;;6.88;4.15;;;;;;;;;;5053716;28;20031;-37
2021/11/15 06:15:55;;;;;;;8.82;3.55;;;;;;;;;;5053952;28;20025;-36
2021/11/15 06:18:20;;;;;;;6.53;3.72;;;;;;;;;;5053562;28;20035;-37
2021/11/15 06:20:46;;;;;;;7.47;4.82;;;;;;;;;;5053815;28;20059;-37
2021/11/15 06:23:11;;;;;;;7.88;3.72;;;;;;;;;;5053574;28;20056;-37
2021/11/15 06:25:37;;;;;;;6.57;4.20;;;;;;;;;;5035416;28;20021;-37
2021/11/15 06:28:02;;;;;;;9.25;4.35;;;;;;;;;;5053395;28;20052;-42
2021/11/15 06:30:28;;;;;;;8.07;4.63;;;;;;;;;;5053655;28;20123;-36
2021/11/15 06:32:53;;;;;;;6.70;3.67;;;;;;;;;;5053166;28;20047;-36
2021/11/15 06:35:19;;;;;;;8.80;3.92;;;;;;;;;;5053384;28;20021;-36
2021/11/15 06:37:44;;;;;;;9.25;4.75;;;;;;;;;;5053013;28;20057;-36
2021/11/15 06:40:10;;;;;;;9.85;4.93;;;;;;;;;;5053424;28;20028;-37
2021/11/15 06:42:36;;;;;;;11.18;6.50;;;;;;;;;;5053451;28;20108;-36
2021/11/15 06:45:01;;;;;;;8.88;5.45;;;;;;;;;;5053347;28;20437;-36
2021/11/15 06:47:33;;;;;;;10.82;5.82;;;;;;;;;;5053290;28;20040;-36
2021/11/15 06:49:59;;;;;;;13.32;6.38;;;;;;;;;;5051596;28;20044;-36
2021/11/15 06:52:24;;;;;;;13.57;6.38;;;;;;;;;;5053030;28;20021;-36
2021/11/15 06:54:50;;;;;;;13.00;6.97;;;;;;;;;;5051566;28;20025;-36
2021/11/15 06:57:16;;;;;;;12.10;5.60;;;;;;;;;;5052955;28;20356;-36
2021/11/15 06:59:41;;;;;;;9.60;5.50;;;;;;;;;;5053168;28;20025;-38
2021/11/15 07:02:07;;;;;;;11.27;6.68;;;;;;;;;;5052663;28;20526;-36
2021/11/15 07:04:33;;;;;;;17.10;7.32;;;;;;;;;;5052829;28;20029;-36
2021/11/15 07:06:58;;;;;;;6.80;3.28;;;;;;;;;;5052611;28;20029;-36
2021/11/15 07:09:24;;;;;;;18.08;5.90;;;;;;;;;;5052504;28;20112;-37
2021/11/15 07:11:50;;;;;;;16.45;7.72;;;;;;;;;;5052611;28;20391;-36
2021/11/15 07:14:15;;;;;;;13.80;6.63;;;;;;;;;;5052815;28;20029;-36
2021/11/15 07:16:41;;;;;;;15.85;8.73;;;;;;;;;;5052900;28;20425;-37
2021/11/15 07:19:06;;;;;;;20.00;7.10;;;;;;;;;;5052685;28;20060;-36
2021/11/15 07:21:32;;;;;;;16.63;7.25;;;;;;;;;;5052539;28;20478;-36
2021/11/15 07:23:57;;;;;;;13.35;6.93;;;;;;;;;;5051856;28;20028;-36
2021/11/15 07:26:23;;;;;;;20.77;8.65;;;;;;;;;;5052359;28;20029;-36
2021/11/15 07:28:49;;;;;;;7.35;4.57;;;;;;;;;;5052450;28;20048;-36
2021/11/15 07:31:15;;;;;;;17.48;7.05;;;;;;;;;;5034452;28;20017;-36
2021/11/15 07:33:41;;;;;;;12.70;7.90;;;;;;;;;;5052439;28;20031;-36
2021/11/15 07:36:06;;;;;;;10.00;6.10;;;;;;;;;;5052012;28;20023;-36
2021/11/15 07:38:32;;;;;;;15.68;7.18;;;;;;;;;;5051912;28;20084;-36
2021/11/15 07:40:58;;;;;;;17.73;8.43;;;;;;;;;;5051941;28;20075;-36
2021/11/15 07:43:23;;;;;;;11.50;6.43;;;;;;;;;;5052047;28;20032;-37
2021/11/15 07:45:49;;;;;;;15.13;7.82;;;;;;;;;;5051853;28;20032;-36
2021/11/15 07:48:14;;;;;;;15.98;7.60;;;;;;;;;;5052204;28;20498;-36
2021/11/15 07:50:40;;;;;;;15.00;5.68;;;;;;;;;;5052172;28;20463;-36
2021/11/15 07:53:05;;;;;;;17.38;7.53;;;;;;;;;;5051704;28;20067;-36
2021/11/15 07:55:31;;;;;;;17.55;8.85;;;;;;;;;;5052169;28;20025;-36
2021/11/15 07:57:59;;;;;;;20.70;9.60;;;;;;;;;;5051507;28;20064;-36
2021/11/15 08:00:25;;;;;;;14.88;7.00;;;;;;;;;;5050537;28;20053;-36
2021/11/15 08:02:51;;;;;;;13.55;7.80;;;;;;;;;;5051935;28;20390;-36
2021/11/15 08:05:17;;;;;;;14.52;7.55;;;;;;;;;;5051791;28;20027;-36
2021/11/15 08:07:42;;;;;;;17.27;7.78;;;;;;;;;;5051534;28;20149;-36
2021/11/15 08:10:09;;;;;;;19.02;9.43;;;;;;;;;;5051531;28;20104;-36
2021/11/15 08:12:36;;;;;;;14.57;7.40;;;;;;;;;;5051781;28;20048;-36
2021/11/15 08:15:06;;;;;;;16.83;7.70;;;;;;;;;;5051471;28;20452;-36
2021/11/15 08:17:32;;;;;;;15.95;7.53;;;;;;;;;;5051481;28;20036;-36
2021/11/15 08:19:58;;;;;;;21.58;9.63;;;;;;;;;;5051268;28;20017;-36
2021/11/15 08:22:23;;;;;;;19.17;9.63;;;;;;;;;;5051698;28;20024;-36
2021/11/15 08:24:55;;;;;;;19.60;9.10;;;;;;;;;;5051565;28;20021;-36
2021/11/15 08:27:20;;;;;;;17.15;8.50;;;;;;;;;;5050106;28;20049;-37
2021/11/15 08:29:46;;;;;;;19.58;8.48;;;;;;;;;;5051249;28;20017;-36
2021/11/15 08:32:13;;;;;;;17.77;9.40;;;;;;;;;;5051397;28;20130;-36
2021/11/15 08:34:38;;;;;;;17.00;7.80;;;;;;;;;;5050971;28;20065;-36
2021/11/15 08:37:07;;;;;;;22.15;9.63;;;;;;;;;;5051030;28;20045;-36
2021/11/15 08:39:34;;;;;;;17.65;8.82;;;;;;;;;;5051251;28;20523;-38
2021/11/15 08:42:01;;;;;;;19.83;8.38;;;;;;;;;;5051082;28;20033;-36
2021/11/15 08:44:27;;;;;;;18.45;10.10;;;;;;;;;;5051217;28;20648;-36
2021/11/15 08:46:54;;;;;;;15.88;8.18;;;;;;;;;;5050941;28;20047;-37
2021/11/15 08:49:20;;;;;;;20.48;9.77;;;;;;;;;;5051121;28;20467;-36
2021/11/15 08:51:46;;;;;;;18.13;9.77;;;;;;;;;;5049891;28;20033;-36
2021/11/15 08:54:15;;;;;;;19.63;8.55;;;;;;;;;;5049932;28;20108;-36
2021/11/15 08:56:46;;;;;;;16.60;7.60;;;;;;;;;;5051117;28;20511;-36
2021/11/15 08:59:12;;;;;;;25.10;8.60;;;;;;;;;;5050979;28;20121;-36
2021/11/15 09:01:38;;;;;;;19.05;8.20;;;;;;;;;;5033218;28;20116;-36
2021/11/15 09:04:04;;;;;;;16.63;7.97;;;;;;;;;;5050970;28;20055;-36
2021/11/15 09:06:34;;;;;;;15.85;8.02;;;;;;;;;;5050935;28;20041;-37
2021/11/15 09:09:00;;;;;;;20.58;9.80;;;;;;;;;;5050826;28;20495;-36
2021/11/15 09:11:25;;;;;;;13.45;7.28;;;;;;;;;;5051157;28;20025;-37
2021/11/15 09:13:51;;;;;;;14.60;7.03;;;;;;;;;;5050757;28;20082;-36
2021/11/15 09:16:17;;;;;;;16.70;8.35;;;;;;;;;;5050776;28;20033;-36
2021/11/15 09:18:43;;;;;;;8.57;4.93;;;;;;;;;;5050816;28;20471;-37
2021/11/15 09:21:10;;;;;;;15.15;7.18;;;;;;;;;;5050750;28;20185;-36
2021/11/15 09:23:40;;;;;;;16.85;6.97;;;;;;;;;;5050984;28;20025;-36
2021/11/15 09:26:06;;;;;;;16.92;8.40;;;;;;;;;;5050649;28;20045;-38
2021/11/15 09:28:31;;;;;;;16.20;7.40;;;;;;;;;;5050967;28;20024;-36
2021/11/15 09:30:57;;;;;;;18.08;8.57;;;;;;;;;;5050926;28;20479;-36
2021/11/15 09:33:23;;;;;;;15.15;6.53;;;;;;;;;;5050802;28;20020;-36
2021/11/15 09:35:49;;;;;;;17.92;8.57;;;;;;;;;;5050621;28;20451;-36
2021/11/15 09:38:19;;;;;;;16.85;7.35;;;;;;;;;;5050553;28;20100;-36
2021/11/15 09:40:46;;;;;;;24.27;7.65;;;;;;;;;;5050538;28;20040;-36
2021/11/15 09:43:13;;;;;;;15.20;8.18;;;;;;;;;;5050948;28;20037;-36
2021/11/15 09:45:39;;;;;;;19.13;8.38;;;;;;;;;;5051248;28;20090;-36
2021/11/15 09:48:05;;;;;;;15.27;6.85;;;;;;;;;;5054356;28;20424;-36
2021/11/15 09:50:30;;;;;;;16.13;8.95;;;;;;;;;;5054213;28;20121;-36
2021/11/15 09:52:56;;;;;;;19.70;8.20;;;;;;;;;;5054035;28;20052;-36
2021/11/15 09:55:21;;;;;;;22.50;8.32;;;;;;;;;;5054242;28;20388;-36
2021/11/15 09:57:48;;;;;;;16.27;9.07;;;;;;;;;;5054228;28;20048;-37
2021/11/15 10:00:20;;;;;;;15.00;8.02;;;;;;;;;;5053937;28;20029;-36
2021/11/15 10:02:46;;;;;;;16.75;8.55;;;;;;;;;;5054084;28;20464;-39
2021/11/15 10:05:12;;;;;;;17.15;8.73;;;;;;;;;;5053862;28;20071;-36
2021/11/15 10:07:46;;;;;;;17.02;7.38;;;;;;;;;;5053727;28;20045;-36
2021/11/15 10:10:40;;;;;;;24.30;8.52;;;;;;;;;;5053835;28;20066;-36
2021/11/15 10:13:08;;;;;;;14.75;7.55;;;;;;;;;;5053683;28;20397;-36
2021/11/15 10:15:52;;;;;;;18.02;8.43;;;;;;;;;;5053955;28;20021;-37
2021/11/15 10:18:20;;;;;;;15.70;7.78;;;;;;;;;;5053868;28;20468;-36
2021/11/15 10:20:47;;;;;;;15.77;8.38;;;;;;;;;;5053834;28;20021;-36
2021/11/15 10:23:31;;;;;;;16.77;9.13;;;;;;;;;;5053673;28;20036;-36
2021/11/15 10:26:02;;;;;;;19.40;8.77;;;;;;;;;;5053405;28;20093;-36
2021/11/15 10:28:29;;;;;;;14.18;6.40;;;;;;;;;;5053356;28;20398;-37
2021/11/15 10:30:55;;;;;;;22.77;10.18;;;;;;;;;;5035583;28;20025;-36
2021/11/15 10:33:32;;;;;;;15.55;8.52;;;;;;;;;;5053396;28;20086;-36
2021/11/15 10:35:58;;;;;;;18.35;10.07;;;;;;;;;;5053394;28;20033;-36
2021/11/15 10:38:38;;;;;;;20.15;9.15;;;;;;;;;;5053155;28;20048;-37
2021/11/15 10:41:12;;;;;;;22.55;8.82;;;;;;;;;;5053114;28;20048;-36
2021/11/15 10:43:38;;;;;;;14.93;7.15;;;;;;;;;;5053456;28;20106;-36
2021/11/15 10:46:03;;;;;;;20.50;9.25;;;;;;;;;;5053053;28;20060;-36
2021/11/15 10:48:44;;;;;;;17.10;8.30;;;;;;;;;;5053340;28;20033;-36
2021/11/15 10:51:12;;;;;;;16.73;8.07;;;;;;;;;;5053025;28;20064;-37
2021/11/15 10:54:01;;;;;;;17.23;8.63;;;;;;;;;;5053051;28;20105;-36
2021/11/15 10:56:31;;;;;;;16.58;8.65;;;;;;;;;;5052505;28;20059;-36
2021/11/15 10:58:56;;;;;;;;;;;;;;;;;;5053245;28;20071;-36
2021/11/15 11:01:32;;;;;;;22.75;9.75;;;;;;;;;;5052930;28;19905;-36
2021/11/15 11:04:11;;;;;;;10.90;6.32;;;;;;;;;;5052830;28;20079;-36
2021/11/15 11:06:56;;;;;;;16.55;7.57;;;;;;;;;;5052695;28;20047;-36
2021/11/15 11:09:34;;;;;;;15.05;8.30;;;;;;;;;;5052638;28;20048;-37
2021/11/15 11:12:14;;;;;;;15.38;8.13;;;;;;;;;;5052636;28;20025;-37
2021/11/15 11:14:40;;;;;;;15.73;8.50;;;;;;;;;;5052675;28;20029;-36
2021/11/15 11:17:06;;;;;;;22.50;9.52;;;;;;;;;;5052524;28;20598;-36
2021/11/15 11:19:34;;;;;;;23.08;9.75;;;;;;;;;;5052446;28;20116;-36
2021/11/15 11:24:59;;;;;;;18.70;10.15;;;;;;;;;;5052566;28;20025;-36
2021/11/15 11:27:26;;;;;;;16.63;7.68;;;;;;;;;;5052547;28;20091;-37
2021/11/15 11:29:53;;;;;;;20.77;8.38;;;;;;;;;;5052564;28;20013;-36
2021/11/15 11:32:21;;;;;;;17.00;8.82;;;;;;;;;;5052523;28;20029;-36
2021/11/15 11:34:48;;;;;;;19.65;8.70;;;;;;;;;;5052186;28;20375;-37
2021/11/15 11:37:14;;;;;;;17.90;8.60;;;;;;;;;;5052028;28;20182;-37
2021/11/15 11:39:44;;;;;;;18.23;9.15;;;;;;;;;;5052013;28;20029;-37
2021/11/15 11:42:13;;;;;;;18.38;9.63;;;;;;;;;;5052082;28;20476;-36
2021/11/15 11:44:39;;;;;;;19.08;8.18;;;;;;;;;;5050757;28;20506;-37
2021/11/15 11:47:06;;;;;;;18.30;7.80;;;;;;;;;;5051965;28;20037;-36
2021/11/15 11:49:33;;;;;;;18.98;8.88;;;;;;;;;;5051996;28;20136;-36
2021/11/15 11:52:00;;;;;;;18.17;7.75;;;;;;;;;;5033865;28;20448;-36
2021/11/15 11:54:31;;;;;;;14.60;6.85;;;;;;;;;;5051916;28;20017;-37
2021/11/15 11:57:03;;;;;;;20.92;9.07;;;;;;;;;;5034032;28;20456;-36
2021/11/15 11:59:29;;;;;;;13.55;6.72;;;;;;;;;;5051711;28;20086;-36
2021/11/15 12:01:59;;;;;;;13.32;6.95;;;;;;;;;;5051695;28;20021;-36
2021/11/15 12:04:25;;;;;;;11.43;6.90;;;;;;;;;;5051959;28;20029;-36
2021/11/15 12:06:52;;;;;;;15.43;8.30;;;;;;;;;;5051801;28;20553;-36
2021/11/15 12:09:17;;;;;;;16.70;7.53;;;;;;;;;;5051117;28;20052;-37
2021/11/15 12:11:44;;;;;;;14.45;8.00;;;;;;;;;;5051642;28;20066;-36
2021/11/15 12:14:11;;;;;;;18.17;9.27;;;;;;;;;;5051425;28;20060;-36
2021/11/15 12:16:55;;;;;;;15.32;7.78;;;;;;;;;;5051532;28;20021;-37
2021/11/15 12:19:28;;;;;;;14.68;7.20;;;;;;;;;;5051403;28;20387;-37
2021/11/15 12:21:53;;;;;;;;;;;;;;;;;;5051787;28;20037;-37
2021/11/15 12:24:20;;;;;;;13.13;7.45;;;;;;;;;;5051779;28;19909;-36
2021/11/15 12:26:47;;;;;;;15.35;6.95;;;;;;;;;;5051351;28;20123;-36
2021/11/15 12:29:29;;;;;;;18.30;7.35;;;;;;;;;;5051275;28;20036;-37
2021/11/15 12:32:02;;;;;;;13.88;7.13;;;;;;;;;;5051325;28;20057;-38
2021/11/15 12:34:28;;;;;;;;;;;;;;;;;;5050552;28;20044;-36
2021/11/15 12:36:54;;;;;;;12.68;6.70;;;;;;;;;;5050903;28;19917;-36
2021/11/15 12:39:25;;;;;;;15.32;7.72;;;;;;;;;;5051305;28;20029;-36
2021/11/15 12:41:54;;;;;;;13.85;6.75;;;;;;;;;;5051024;28;20037;-37
2021/11/15 12:44:23;;;;;;;13.75;6.22;;;;;;;;;;5051274;28;20087;-36
2021/11/15 12:46:48;;;;;;;18.23;7.20;;;;;;;;;;5049881;28;20051;-36
2021/11/15 12:49:24;;;;;;;10.20;6.63;;;;;;;;;;5051381;28;20013;-36
2021/11/15 12:52:16;;;;;;;15.55;6.40;;;;;;;;;;5051063;28;20029;-36
2021/11/15 12:54:45;;;;;;;17.05;7.68;;;;;;;;;;5051198;28;20439;-36
2021/11/15 12:57:26;;;;;;;14.43;7.55;;;;;;;;;;5049715;28;20075;-36
2021/11/15 13:00:27;;;;;;;11.50;6.15;;;;;;;;;;5051299;28;20390;-36
2021/11/15 13:02:55;;;;;;;9.98;5.82;;;;;;;;;;4992436;28;20521;-36
2021/11/15 13:05:21;;;;;;;15.82;7.82;;;;;;;;;;5042693;28;20025;-36
2021/11/15 13:07:48;;;;;;;10.20;5.57;;;;;;;;;;5050851;28;20045;-37
2021/11/15 13:10:13;;;;;;;16.70;5.75;;;;;;;;;;5050779;28;20375;-36
2021/11/15 13:12:39;;;;;;;16.88;5.88;;;;;;;;;;5050966;28;20032;-36
2021/11/15 13:15:06;;;;;;;11.32;5.47;;;;;;;;;;5050876;28;20017;-36
2021/11/15 13:17:32;;;;;;;10.48;5.78;;;;;;;;;;5050812;28;20037;-37
2021/11/15 13:20:03;;;;;;;11.63;6.63;;;;;;;;;;5050868;28;20020;-36
2021/11/15 13:22:30;;;;;;;12.10;5.25;;;;;;;;;;5054528;28;20480;-37
2021/11/15 13:24:56;;;;;;;9.35;5.85;;;;;;;;;;5054586;28;20067;-36
2021/11/15 13:27:23;;;;;;;13.93;6.60;;;;;;;;;;5054536;28;20037;-36
2021/11/15 13:29:49;;;;;;;9.35;5.10;;;;;;;;;;5054633;28;20059;-39
2021/11/15 13:32:15;;;;;;;13.77;4.90;;;;;;;;;;5036798;28;20033;-36
2021/11/15 13:34:41;;;;;;;17.02;5.45;;;;;;;;;;5054568;28;20009;-36
2021/11/15 13:37:07;;;;;;;9.43;5.40;;;;;;;;;;5053027;28;20051;-37
2021/11/15 13:39:33;;;;;;;9.27;5.07;;;;;;;;;;5054340;28;20028;-36
2021/11/15 13:41:58;;;;;;;11.35;5.32;;;;;;;;;;5054262;28;20025;-36
2021/11/15 13:44:25;;;;;;;10.38;5.20;;;;;;;;;;5054373;28;20032;-36
2021/11/15 13:46:51;;;;;;;12.35;4.95;;;;;;;;;;5054058;28;20411;-37
2021/11/15 13:49:16;;;;;;;9.40;5.57;;;;;;;;;;5054241;28;20020;-36
2021/11/15 13:51:42;;;;;;;12.13;5.47;;;;;;;;;;5054459;28;20476;-36
2021/11/15 13:54:07;;;;;;;11.80;6.43;;;;;;;;;;5054013;28;20021;-36
2021/11/15 13:56:33;;;;;;;13.02;5.57;;;;;;;;;;5054121;28;20086;-36
2021/11/15 13:58:58;;;;;;;12.82;5.53;;;;;;;;;;5054006;28;20090;-36
2021/11/15 14:01:24;;;;;;;11.65;5.05;;;;;;;;;;5053942;28;20029;-36
2021/11/15 14:03:50;;;;;;;14.10;6.03;;;;;;;;;;5054363;28;20028;-36
2021/11/15 14:06:15;;;;;;;9.75;4.72;;;;;;;;;;5035917;28;20036;-36
2021/11/15 14:08:40;;;;;;;12.48;6.00;;;;;;;;;;5053869;28;20104;-36
2021/11/15 14:11:07;;;;;;;11.85;5.95;;;;;;;;;;5035951;28;20033;-36
2021/11/15 14:13:33;;;;;;;10.68;5.22;;;;;;;;;;5053809;28;20028;-37
2021/11/15 14:15:59;;;;;;;9.20;5.38;;;;;;;;;;5035951;28;20083;-36
2021/11/15 14:18:25;;;;;;;8.55;5.28;;;;;;;;;;5053922;28;20021;-37
2021/11/15 14:20:51;;;;;;;12.05;5.05;;;;;;;;;;5053793;28;20029;-37
2021/11/15 14:23:17;;;;;;;9.40;4.95;;;;;;;;;;5053882;28;20021;-36
2021/11/15 14:25:42;;;;;;;17.83;6.78;;;;;;;;;;5053506;28;20487;-37
2021/11/15 14:28:10;;;;;;;9.18;4.72;;;;;;;;;;5053664;28;20391;-36
2021/11/15 14:30:35;;;;;;;11.95;5.70;;;;;;;;;;5053374;28;20032;-36
2021/11/15 14:33:00;;;;;;;10.00;5.35;;;;;;;;;;5052964;28;20036;-37
2021/11/15 14:35:26;;;;;;;7.40;4.13;;;;;;;;;;5053695;28;20075;-37
2021/11/15 14:37:52;;;;;;;10.45;5.32;;;;;;;;;;5053101;28;20053;-36
2021/11/15 14:40:17;;;;;;;12.23;5.82;;;;;;;;;;5053360;28;20048;-36